createdAt,value
2022-10-14T00:01:07.441Z,4.20
2022-10-14T00:03:35.495Z,4.35
2022-10-14T00:06:14.240Z,4.13
2022-10-14T00:08:41.956Z,5.18
2022-10-14T00:11:17.258Z,4.50
2022-10-14T00:13:44.813Z,4.78
2022-10-14T00:16:18.728Z,4.65
2022-10-14T00:18:45.665Z,5.05
2022-10-14T00:21:12.371Z,5.18
2022-10-14T00:23:39.239Z,5.20
2022-10-14T00:26:06.250Z,4.57
2022-10-14T00:28:35.242Z,4.80
2022-10-14T00:31:02.710Z,5.18
2022-10-14T00:33:29.691Z,5.07
2022-10-14T00:36:06.508Z,7.35
2022-10-14T00:38:37.466Z,6.70
2022-10-14T00:41:04.713Z,6.57
2022-10-14T00:43:52.038Z,5.90
2022-10-14T00:46:18.711Z,5.68
2022-10-14T00:48:45.476Z,5.00
2022-10-14T00:51:13.133Z,4.78
2022-10-14T00:53:43.495Z,4.90
2022-10-14T00:56:12.706Z,5.03
2022-10-14T00:58:39.770Z,4.80
2022-10-14T01:01:08.060Z,4.07
2022-10-14T01:03:35.031Z,4.97
2022-10-14T01:06:20.740Z,7.03
2022-10-14T01:08:53.444Z,7.03
2022-10-14T01:11:47.496Z,6.55
2022-10-14T01:14:49.228Z,7.10
2022-10-14T01:17:23.305Z,7.53
2022-10-14T01:20:18.639Z,5.97
2022-10-14T01:23:08.593Z,5.78
2022-10-14T01:25:37.470Z,6.22
2022-10-14T01:28:20.623Z,5.50
2022-10-14T01:31:10.855Z,4.90
2022-10-14T01:33:41.984Z,4.85
2022-10-14T01:36:17.225Z,4.35
2022-10-14T01:38:55.919Z,4.07
2022-10-14T01:41:37.881Z,3.92
2022-10-14T01:44:10.131Z,4.07
2022-10-14T01:46:43.298Z,4.10
2022-10-14T01:49:15.732Z,3.88
2022-10-14T01:51:56.303Z,3.78
2022-10-14T01:54:45.130Z,3.97
2022-10-14T01:57:17.082Z,4.10
2022-10-14T01:59:44.837Z,4.18
2022-10-14T02:02:13.398Z,4.22
2022-10-14T02:04:41.307Z,4.60
2022-10-14T02:07:25.948Z,4.00
2022-10-14T02:10:23.751Z,4.22
2022-10-14T02:12:50.623Z,4.63
2022-10-14T02:15:30.648Z,4.90
2022-10-14T02:18:06.816Z,4.40
2022-10-14T02:20:53.547Z,4.82
2022-10-14T02:23:28.034Z,4.72
2022-10-14T02:25:56.572Z,4.00
2022-10-14T02:28:27.732Z,4.25
2022-10-14T02:30:59.087Z,4.57
2022-10-14T02:33:33.234Z,3.90
2022-10-14T02:36:03.685Z,4.47
2022-10-14T02:38:31.954Z,4.57
2022-10-14T02:41:01.674Z,5.13
2022-10-14T02:43:28.498Z,5.00
2022-10-14T02:46:02.211Z,4.88
2022-10-14T02:48:29.102Z,5.10
2022-10-14T02:50:55.802Z,4.32
2022-10-14T02:53:22.479Z,4.57
2022-10-14T02:55:49.174Z,4.90
2022-10-14T02:58:15.978Z,5.00
2022-10-14T03:00:42.745Z,4.55
2022-10-14T03:03:11.346Z,4.15
2022-10-14T03:05:38.696Z,4.85
2022-10-14T03:08:12.055Z,5.13
2022-10-14T03:10:39.670Z,4.78
2022-10-14T03:13:09.920Z,5.50
2022-10-14T03:15:42.345Z,4.97
2022-10-14T03:18:10.957Z,4.85
2022-10-14T03:20:45.118Z,4.90
2022-10-14T03:23:15.019Z,4.70
2022-10-14T03:25:46.369Z,5.47
2022-10-14T03:28:25.023Z,5.22
2022-10-14T03:31:05.791Z,4.93
2022-10-14T03:33:49.325Z,5.55
2022-10-14T03:36:18.223Z,5.32
2022-10-14T03:38:52.684Z,4.82
2022-10-14T03:41:39.735Z,5.28
2022-10-14T03:44:08.102Z,5.45
2022-10-14T03:46:37.623Z,5.25
2022-10-14T03:49:04.387Z,5.32
2022-10-14T03:51:31.490Z,4.78
2022-10-14T03:54:08.329Z,4.95
2022-10-14T03:56:35.722Z,5.72
2022-10-14T03:59:03.191Z,5.00
2022-10-14T04:01:30.022Z,5.75
2022-10-14T04:04:25.826Z,6.10
2022-10-14T04:06:52.658Z,5.65
2022-10-14T04:09:21.393Z,8.30
2022-10-14T04:11:48.537Z,11.55
2022-10-14T04:14:34.370Z,7.28
2022-10-14T04:17:01.101Z,12.50
2022-10-14T04:19:27.823Z,11.80
2022-10-14T04:21:54.638Z,13.90
2022-10-14T04:24:22.950Z,14.13
2022-10-14T04:26:56.188Z,12.85
2022-10-14T04:29:32.633Z,9.77
2022-10-14T04:32:05.922Z,6.43
2022-10-14T04:34:32.679Z,5.80
2022-10-14T04:36:59.477Z,6.25
2022-10-14T04:39:48.929Z,5.88
2022-10-14T04:42:16.659Z,5.38
2022-10-14T04:44:46.923Z,5.07
2022-10-14T04:47:15.277Z,5.90
2022-10-14T04:49:42.017Z,5.85
2022-10-14T04:52:14.851Z,5.40
2022-10-14T04:54:52.349Z,5.60
2022-10-14T04:57:29.460Z,4.82
2022-10-14T04:59:56.142Z,5.20
2022-10-14T05:02:42.788Z,5.55
2022-10-14T05:05:10.132Z,5.72
2022-10-14T05:07:39.844Z,6.05
2022-10-14T05:10:36.162Z,5.22
2022-10-14T05:13:07.431Z,5.00
2022-10-14T05:15:38.209Z,5.07
2022-10-14T05:18:12.732Z,5.32
2022-10-14T05:20:59.987Z,5.38
2022-10-14T05:23:39.041Z,5.72
2022-10-14T05:26:06.172Z,6.40
2022-10-14T05:28:34.395Z,8.35
2022-10-14T05:31:01.120Z,7.25
2022-10-14T05:33:29.778Z,9.65
2022-10-14T05:35:59.980Z,9.00
2022-10-14T05:38:33.764Z,9.90
2022-10-14T05:41:01.081Z,10.10
2022-10-14T05:43:32.415Z,10.70
2022-10-14T05:46:01.577Z,11.70
2022-10-14T05:48:32.922Z,11.15
2022-10-14T05:51:02.539Z,11.57
2022-10-14T05:53:32.553Z,11.07
2022-10-14T05:56:08.348Z,10.63
2022-10-14T05:58:37.565Z,11.18
2022-10-14T06:01:07.484Z,11.07
2022-10-14T06:03:35.011Z,10.65
2022-10-14T06:06:02.135Z,11.32
2022-10-14T06:08:30.065Z,11.52
2022-10-14T06:10:56.870Z,11.23
2022-10-14T06:13:23.719Z,12.18
2022-10-14T06:15:51.323Z,14.18
2022-10-14T06:18:18.027Z,12.88
2022-10-14T06:20:50.997Z,12.73
2022-10-14T06:23:17.746Z,11.85
2022-10-14T06:25:44.632Z,12.50
2022-10-14T06:28:11.454Z,11.88
2022-10-14T06:30:38.260Z,11.45
2022-10-14T06:33:04.907Z,12.27
2022-10-14T06:35:31.748Z,11.60
2022-10-14T06:37:58.670Z,11.80
2022-10-14T06:40:25.507Z,11.73
2022-10-14T06:42:53.700Z,12.82
2022-10-14T06:45:20.362Z,13.15
2022-10-14T06:47:47.201Z,12.32
2022-10-14T06:50:13.869Z,12.10
2022-10-14T06:52:40.571Z,12.13
2022-10-14T06:55:07.614Z,11.98
2022-10-14T06:57:34.281Z,11.70
2022-10-14T07:00:00.929Z,11.98
2022-10-14T07:02:27.899Z,11.82
2022-10-14T07:04:54.565Z,12.27
2022-10-14T07:07:21.224Z,12.77
2022-10-14T07:09:47.982Z,12.68
2022-10-14T07:12:14.947Z,13.00
2022-10-14T07:14:41.681Z,13.48
2022-10-14T07:17:09.105Z,12.40
2022-10-14T07:19:35.744Z,12.43
2022-10-14T07:22:02.414Z,14.02
2022-10-14T07:24:29.092Z,12.90
2022-10-14T07:26:55.831Z,12.88
2022-10-14T07:29:22.565Z,12.85
2022-10-14T07:31:49.349Z,12.07
2022-10-14T07:34:16.377Z,12.63
2022-10-14T07:36:43.073Z,11.85
2022-10-14T07:39:09.800Z,10.63
2022-10-14T07:41:37.219Z,11.52
2022-10-14T07:44:08.853Z,9.65
2022-10-14T07:46:38.317Z,10.02
2022-10-14T07:49:13.718Z,9.55
2022-10-14T07:51:41.436Z,8.75
2022-10-14T07:54:12.840Z,9.48
2022-10-14T07:56:41.837Z,8.15
2022-10-14T07:59:08.961Z,8.55
2022-10-14T08:01:35.861Z,8.10
2022-10-14T08:04:02.570Z,8.00
2022-10-14T08:06:29.273Z,8.52
2022-10-14T08:08:55.944Z,8.70
2022-10-14T08:11:25.481Z,7.95
2022-10-14T08:13:52.649Z,8.15
2022-10-14T08:16:25.167Z,7.75
2022-10-14T08:18:53.342Z,7.20
2022-10-14T08:21:21.572Z,9.40
2022-10-14T08:23:48.359Z,9.02
2022-10-14T08:26:19.937Z,7.05
2022-10-14T08:28:47.680Z,6.47
2022-10-14T08:31:14.729Z,6.53
2022-10-14T08:33:41.630Z,6.00
2022-10-14T08:36:09.054Z,5.90
2022-10-14T08:38:35.802Z,5.68
2022-10-14T08:41:14.866Z,5.25
2022-10-14T08:44:11.803Z,6.15
2022-10-14T08:46:44.155Z,5.32
2022-10-14T08:49:30.412Z,5.18
2022-10-14T08:52:34.997Z,6.13
2022-10-14T08:55:19.394Z,5.78
2022-10-14T08:58:00.218Z,5.53
2022-10-14T09:00:30.667Z,5.40
2022-10-14T09:02:59.792Z,5.95
2022-10-14T09:05:27.528Z,5.97
2022-10-14T09:07:56.990Z,6.90
2022-10-14T09:10:42.060Z,6.22
2022-10-14T09:13:17.135Z,6.70
2022-10-14T09:15:55.190Z,6.72
2022-10-14T09:18:40.309Z,6.10
2022-10-14T09:21:59.077Z,5.40
2022-10-14T09:24:38.117Z,6.68
2022-10-14T09:27:11.851Z,7.22
2022-10-14T09:29:53.549Z,7.45
2022-10-14T09:32:39.401Z,6.95
2022-10-14T09:35:24.049Z,6.85
2022-10-14T09:37:52.041Z,6.65
2022-10-14T09:40:46.040Z,7.10
2022-10-14T09:43:20.875Z,5.47
2022-10-14T09:45:50.670Z,5.72
2022-10-14T09:48:19.176Z,6.55
2022-10-14T09:50:52.716Z,5.75
2022-10-14T09:53:28.767Z,4.72
2022-10-14T09:55:59.063Z,4.70
2022-10-14T09:58:53.423Z,4.68
2022-10-14T10:01:24.399Z,4.93
2022-10-14T10:03:52.659Z,5.00
2022-10-14T10:06:28.526Z,4.47
2022-10-14T10:09:01.312Z,4.18
2022-10-14T10:11:31.297Z,3.88
2022-10-14T10:13:58.127Z,3.80
2022-10-14T10:16:31.424Z,3.78
2022-10-14T10:19:01.438Z,4.20
2022-10-14T10:21:30.291Z,4.00
2022-10-14T10:24:02.792Z,3.63
2022-10-14T10:26:33.306Z,4.15
2022-10-14T10:29:05.327Z,3.80
2022-10-14T10:34:28.757Z,3.25
2022-10-14T10:37:02.153Z,4.10
2022-10-14T10:39:38.540Z,3.78
2022-10-14T10:42:43.978Z,3.53
2022-10-14T10:45:36.965Z,3.35
2022-10-14T10:48:15.585Z,3.60
2022-10-14T10:50:56.141Z,3.47
2022-10-14T10:53:30.277Z,3.63
2022-10-14T10:56:07.857Z,3.42
2022-10-14T10:58:42.260Z,2.95
2022-10-14T11:01:18.256Z,3.80
2022-10-14T11:03:56.676Z,3.17
2022-10-14T11:07:04.976Z,2.90
2022-10-14T11:10:30.139Z,2.70
2022-10-14T11:13:05.556Z,2.88
2022-10-14T11:15:47.191Z,3.45
